Urb Los Ingenieros, Puerto Rico
Current Conditions -  °F | °C
As of 12:56 PM on Friday 21 Nov 2014 (Local Time) from TJSJ Reporting Station
Scattered Clouds Scattered Clouds  
Wind Chill: 86°   Ceiling: Unl
Heat Index: 94°   Visibility: 10mi
Dew Point: 74°   Wind: 18mph
Humidity: 67%   Direction: 70°ENE
Pressure: 29.99"   Gusts: NA
Location:  18.417°N, 66.0617°W
Report Text: TJSJ 211656Z 07016KT 10SM SCT032 30/23 A2999 RMK AO2 SLP154 T03000233
Loading
Personal Weather Stations






























Interactive Weather Map New forecast layout! Learn more

10-Day Weather Forecast

Advertisements
Track Severe Weather on mobile